Time;durP1;ratioP1;P1;durP2;ratioP2;P2;SDS_P1;SDS_P2;PMS_P1;PMS_P2;Temp;Humidity;BMP_temperature;BMP_pressure;BME280_temperature;BME280_humidity;BME280_pressure;Samples;Min_cycle;Max_cycle;Signal;HPM_P1;HPM_P2
2022/05/25 02:47:39;;;;;;;;;;;;;;;15.25;59.47;99603.88;1088384;54;19950;-80
2022/05/25 02:48:42;;;;;;;;;;;;;;;15.11;59.79;99603.66;1088806;54;19927;-84
2022/05/25 02:50:59;;;;;;;;;;;;;;;15.09;60.06;99616.50;1087373;54;19986;-76
2022/05/25 02:52:02;;;;;;;;;;;;;;;15.17;59.73;99609.34;1088816;54;19922;-78
2022/05/25 02:53:11;;;;;;;;;;;;;;;15.11;60.13;99610.91;1088690;54;19954;-80
2022/05/25 02:54:13;;;;;;;;;;;;;;;15.10;59.95;99610.09;1089989;46;19966;-81
2022/05/25 02:55:21;;;;;;;;;;;;;;;15.15;60.01;99608.69;1111847;39;20526;-84
2022/05/25 02:56:23;;;;;;;;;;;;;;;15.03;60.30;99616.38;1088714;54;19994;-81
2022/05/25 02:58:31;;;;;;;;;;;;;;;15.04;60.21;99607.31;1088453;54;19963;-81
2022/05/25 02:59:33;;;;;;;;;;;;;;;15.06;60.31;99606.09;1088510;54;19934;-82
2022/05/25 03:00:37;;;;;;;;;;;;;;;14.98;60.27;99608.88;1088641;46;19930;-81
2022/05/25 03:01:39;;;;;;;;;;;;;;;14.87;60.94;99607.47;1088524;54;19927;-81
2022/05/25 03:02:47;;;;;;;;;;;;;;;14.89;60.87;99610.78;1088419;54;19934;-81
2022/05/25 03:03:49;;;;;;;;;;;;;;;14.88;60.60;99613.69;1088514;54;19927;-81
2022/05/25 03:04:52;;;;;;;;;;;;;;;14.89;60.63;99615.34;1088059;54;19942;-80
2022/05/25 03:05:55;;;;;;;;;;;;;;;14.85;60.78;99606.81;1088296;54;19994;-81
2022/05/25 03:06:59;;;;;;;;;;;;;;;14.91;60.61;99607.94;1091410;46;19939;-82
2022/05/25 03:08:00;;;;;;;;;;;;;;;14.98;60.45;99616.94;1088579;54;20023;-82
2022/05/25 03:09:06;;;;;;;;;;;;;;;15.09;59.61;99613.81;1088638;54;19948;-82
2022/05/25 03:11:33;;;;;;;;;;;;;;;15.10;59.74;99618.16;1088640;54;19927;-82
2022/05/25 03:12:34;;;;;;;;;;;;;;;14.98;60.35;99625.03;1088516;54;19942;-80
2022/05/25 03:13:41;;;;;;;;;;;;;;;14.93;60.38;99616.63;1088650;54;19947;-83
2022/05/25 03:14:42;;;;;;;;;;;;;;;14.96;60.10;99616.28;1088639;54;19934;-85
2022/05/25 03:15:47;;;;;;;;;;;;;;;14.87;60.90;99620.06;1088751;54;20571;-83
2022/05/25 03:16:48;;;;;;;;;;;;;;;14.82;60.86;99613.41;1088603;54;19939;-81
2022/05/25 03:17:55;;;;;;;;;;;;;;;14.79;61.08;99619.16;1098274;39;20833;-82
2022/05/25 03:18:57;;;;;;;;;;;;;;;14.78;61.03;99624.72;1089051;39;20494;-82
2022/05/25 03:20:01;;;;;;;;;;;;;;;14.75;60.75;99622.38;1088555;54;19950;-83
2022/05/25 03:21:02;;;;;;;;;;;;;;;14.93;60.41;99620.19;1088615;47;19927;-83
2022/05/25 03:22:06;;;;;;;;;;;;;;;15.03;60.15;99622.59;1088402;54;19990;-81
2022/05/25 03:23:07;;;;;;;;;;;;;;;15.05;60.03;99625.94;1088573;54;19942;-82
2022/05/25 03:24:12;;;;;;;;;;;;;;;15.11;59.84;99625.19;1088617;54;19942;-83
2022/05/25 03:25:16;;;;;;;;;;;;;;;15.15;59.73;99625.69;1088486;54;19926;-83
2022/05/25 03:26:18;;;;;;;;;;;;;;;15.06;59.82;99627.63;1088722;54;19933;-82
2022/05/25 03:27:21;;;;;;;;;;;;;;;15.11;59.51;99630.59;1090669;46;19926;-82
2022/05/25 03:28:36;;;;;;;;;;;;;;;15.07;59.53;99629.28;1088624;54;19943;-81
2022/05/25 03:29:37;;;;;;;;;;;;;;;15.12;59.73;99626.06;1090852;46;19942;-82
2022/05/25 03:30:45;;;;;;;;;;;;;;;15.04;59.76;99632.34;1092076;46;19943;-83
2022/05/25 03:31:46;;;;;;;;;;;;;;;15.03;60.00;99627.97;1093591;46;19946;-81
2022/05/25 03:32:50;;;;;;;;;;;;;;;15.05;59.83;99634.03;1090862;46;19943;-82
2022/05/25 03:33:59;;;;;;;;;;;;;;;15.00;59.80;99627.50;1088642;54;19927;-84
2022/05/25 03:35:00;;;;;;;;;;;;;;;15.05;59.57;99636.72;1090047;39;20495;-82
2022/05/25 03:36:04;;;;;;;;;;;;;;;15.06;59.42;99638.38;1088611;54;19957;-83
2022/05/25 03:37:08;;;;;;;;;;;;;;;15.10;59.42;99641.53;1088603;54;19942;-83
2022/05/25 03:38:09;;;;;;;;;;;;;;;15.02;60.02;99647.84;1088341;54;19949;-82
2022/05/25 03:39:18;;;;;;;;;;;;;;;14.93;59.97;99643.56;1088456;54;19934;-84
2022/05/25 03:40:20;;;;;;;;;;;;;;;14.82;60.53;99642.16;1088350;54;19968;-83
2022/05/25 03:41:24;;;;;;;;;;;;;;;14.71;60.64;99648.81;1091140;46;19943;-84
2022/05/25 03:42:25;;;;;;;;;;;;;;;14.72;60.75;99653.19;1088051;54;19949;-80
2022/05/25 03:43:32;;;;;;;;;;;;;;;14.75;60.92;99651.97;1088019;54;19987;-81
2022/05/25 03:44:33;;;;;;;;;;;;;;;14.90;60.30;99649.31;1088017;54;19943;-81
2022/05/25 03:45:37;;;;;;;;;;;;;;;14.84;60.83;99656.28;1088085;54;20019;-80
2022/05/25 03:46:38;;;;;;;;;;;;;;;14.67;60.96;99655.56;1088091;54;20690;-82
2022/05/25 03:47:43;;;;;;;;;;;;;;;14.56;61.32;99653.25;1088042;54;19942;-80
2022/05/25 03:48:47;;;;;;;;;;;;;;;14.54;61.65;99649.94;1089734;46;19938;-82
2022/05/25 03:49:52;;;;;;;;;;;;;;;14.55;61.70;99651.63;1089950;46;19939;-82
2022/05/25 03:50:55;;;;;;;;;;;;;;;14.54;61.75;99655.31;1092575;46;20002;-79
2022/05/25 03:51:57;;;;;;;;;;;;;;;14.58;61.74;99664.69;1088435;54;19934;-80
2022/05/25 03:53:01;;;;;;;;;;;;;;;14.55;61.93;99657.00;1088289;54;19934;-81
2022/05/25 03:54:02;;;;;;;;;;;;;;;14.45;62.34;99663.44;1088372;54;19946;-81
2022/05/25 03:55:07;;;;;;;;;;;;;;;14.38;62.23;99667.84;1088409;54;19954;-81
2022/05/25 03:56:11;;;;;;;;;;;;;;;14.33;62.62;99671.09;1088440;54;19949;-79
2022/05/25 03:57:12;;;;;;;;;;;;;;;14.26;62.94;99672.00;1088424;54;19943;-81
2022/05/25 03:58:16;;;;;;;;;;;;;;;14.27;62.74;99677.19;1087995;54;19949;-80
2022/05/25 03:59:17;;;;;;;;;;;;;;;14.28;62.94;99678.84;1088441;54;19927;-78
2022/05/25 04:00:22;;;;;;;;;;;;;;;14.34;62.87;99683.50;1088408;54;19927;-79
2022/05/25 04:01:23;;;;;;;;;;;;;;;14.48;62.34;99681.91;1088439;54;19979;-82
2022/05/25 04:02:27;;;;;;;;;;;;;;;14.61;61.81;99677.78;1088322;54;19942;-82
2022/05/25 04:03:29;;;;;;;;;;;;;;;14.63;61.46;99686.53;1087979;54;19942;-80
2022/05/25 04:04:33;;;;;;;;;;;;;;;14.73;61.31;99678.22;1088284;54;20015;-80
2022/05/25 04:05:36;;;;;;;;;;;;;;;14.82;60.94;99682.50;1088376;54;19942;-82
2022/05/25 04:06:41;;;;;;;;;;;;;;;14.72;61.17;99682.78;1088445;54;19943;-82
2022/05/25 04:07:43;;;;;;;;;;;;;;;14.59;61.78;99686.06;1088337;54;19934;-80
2022/05/25 04:08:47;;;;;;;;;;;;;;;14.53;62.04;99685.94;1088244;54;19942;-81
2022/05/25 04:09:48;;;;;;;;;;;;;;;14.52;61.91;99687.75;1087941;54;19954;-81
2022/05/25 04:10:52;;;;;;;;;;;;;;;14.55;61.90;99690.09;1088391;39;20668;-80
2022/05/25 04:11:53;;;;;;;;;;;;;;;14.57;61.63;99695.28;1087954;54;19987;-80
2022/05/25 04:12:58;;;;;;;;;;;;;;;14.53;62.07;99692.13;1087902;54;19943;-81
2022/05/25 04:14:00;;;;;;;;;;;;;;;14.52;61.84;99698.50;1087963;54;19966;-82
2022/05/25 04:15:04;;;;;;;;;;;;;;;14.57;61.87;99692.59;1087941;54;19942;-80
2022/05/25 04:16:05;;;;;;;;;;;;;;;14.54;61.51;99698.34;1087938;54;19942;-80
2022/05/25 04:17:09;;;;;;;;;;;;;;;14.45;62.00;99698.38;1088449;54;19995;-83
2022/05/25 04:20:30;;;;;;;;;;;;;;;14.44;62.00;99696.75;1088364;54;19927;-81
2022/05/25 04:21:34;;;;;;;;;;;;;;;14.41;62.45;99699.78;1088567;54;19927;-82
2022/05/25 04:22:39;;;;;;;;;;;;;;;14.34;62.51;99709.56;1088566;54;19962;-81
2022/05/25 04:23:41;;;;;;;;;;;;;;;14.25;62.80;99707.94;1088679;54;19923;-82
2022/05/25 04:24:45;;;;;;;;;;;;;;;14.23;63.05;99709.97;1088373;54;19974;-80
2022/05/25 04:25:46;;;;;;;;;;;;;;;14.28;62.85;99710.28;1088323;54;19975;-79
2022/05/25 04:28:44;;;;;;;;;;;;;;;14.38;62.37;99713.56;1088697;54;19927;-85
2022/05/25 04:29:54;;;;;;;;;;;;;;;14.34;62.68;99715.78;1088619;54;20006;-86
2022/05/25 04:30:58;;;;;;;;;;;;;;;14.35;62.67;99709.38;1097381;39;20652;-83
2022/05/25 04:32:10;;;;;;;;;;;;;;;14.28;63.06;99710.28;1088692;54;19927;-84
2022/05/25 04:35:32;;;;;;;;;;;;;;;14.29;62.97;99710.09;1088117;54;20273;-84
2022/05/25 04:38:09;;;;;;;;;;;;;;;14.27;62.93;99713.97;1088408;54;19934;-82
2022/05/25 04:39:19;;;;;;;;;;;;;;;14.48;62.56;99716.03;1092983;39;20613;-82
2022/05/25 04:40:27;;;;;;;;;;;;;;;14.57;62.26;99719.50;1098193;39;20709;-83
2022/05/25 05:05:32;;;;;;;;;;;;;;;15.07;60.62;99755.81;1087464;54;19950;-78
2022/05/25 05:06:35;;;;;;;;;;;;;;;15.07;60.41;99760.34;1087848;54;19943;-79
2022/05/25 05:07:36;;;;;;;;;;;;;;;15.09;60.33;99755.63;1087805;54;19963;-78
2022/05/25 05:08:41;;;;;;;;;;;;;;;15.11;60.31;99754.41;1087815;54;20013;-78
2022/05/25 05:09:43;;;;;;;;;;;;;;;15.07;60.51;99760.34;1087777;54;19942;-79
2022/05/25 05:10:47;;;;;;;;;;;;;;;15.13;60.08;99755.06;1087864;54;19943;-79
2022/05/25 05:11:48;;;;;;;;;;;;;;;15.18;60.03;99759.91;1087809;54;19943;-79
2022/05/25 05:12:52;;;;;;;;;;;;;;;15.20;60.16;99755.19;1087810;54;19959;-79
2022/05/25 05:13:53;;;;;;;;;;;;;;;15.04;60.97;99758.84;1088107;54;19935;-78
2022/05/25 05:14:57;;;;;;;;;;;;;;;15.01;60.66;99761.94;1088178;54;19942;-79
2022/05/25 05:16:05;;;;;;;;;;;;;;;14.80;61.42;99758.06;1090339;46;19966;-81
2022/05/25 05:17:07;;;;;;;;;;;;;;;14.68;61.55;99764.84;1088357;54;19943;-79
2022/05/25 05:18:11;;;;;;;;;;;;;;;14.66;61.55;99762.34;1088327;54;19995;-78
2022/05/25 05:19:15;;;;;;;;;;;;;;;14.54;61.95;99762.91;1091757;46;19958;-82
2022/05/25 05:20:20;;;;;;;;;;;;;;;14.54;62.15;99768.28;1088206;54;19966;-79
2022/05/25 05:21:32;;;;;;;;;;;;;;;14.46;62.27;99771.84;1088273;54;19935;-79
2022/05/25 05:22:34;;;;;;;;;;;;;;;14.42;62.64;99774.06;1088262;54;19927;-81
2022/05/25 05:23:38;;;;;;;;;;;;;;;14.35;62.77;99773.09;1088311;54;19965;-79
2022/05/25 05:24:39;;;;;;;;;;;;;;;14.37;62.53;99776.44;1088225;54;20626;-79
2022/05/25 05:25:42;;;;;;;;;;;;;;;14.47;62.23;99778.91;1088940;39;20554;-80
2022/05/25 05:26:44;;;;;;;;;;;;;;;14.53;62.24;99772.00;1089246;47;19942;-78
2022/05/25 05:27:48;;;;;;;;;;;;;;;14.53;62.18;99778.19;1088261;54;19950;-79
2022/05/25 05:28:53;;;;;;;;;;;;;;;14.56;62.22;99777.00;1088136;54;19943;-78
2022/05/25 05:29:56;;;;;;;;;;;;;;;14.56;61.75;99782.38;1087792;54;19943;-79
2022/05/25 05:31:02;;;;;;;;;;;;;;;14.53;61.99;99780.88;1088201;54;19983;-79
2022/05/25 05:32:04;;;;;;;;;;;;;;;14.66;61.47;99778.50;1088716;47;19950;-79
2022/05/25 05:33:08;;;;;;;;;;;;;;;14.70;61.57;99775.44;1088218;54;19927;-78
2022/05/25 05:34:09;;;;;;;;;;;;;;;14.80;61.03;99776.88;1088266;54;19927;-77
2022/05/25 05:35:13;;;;;;;;;;;;;;;14.86;61.13;99783.41;1088225;54;19991;-79
2022/05/25 05:36:19;;;;;;;;;;;;;;;14.95;61.04;99782.34;1088238;54;19943;-80
2022/05/25 05:37:25;;;;;;;;;;;;;;;15.01;60.67;99778.09;1088290;54;19926;-79
2022/05/25 05:38:30;;;;;;;;;;;;;;;15.09;60.26;99782.53;1088155;54;20007;-80
2022/05/25 05:39:33;;;;;;;;;;;;;;;15.06;60.67;99783.75;1091181;47;19973;-80
2022/05/25 05:40:37;;;;;;;;;;;;;;;15.09;60.25;99783.41;1088190;54;19934;-79
2022/05/25 05:41:40;;;;;;;;;;;;;;;15.08;60.12;99784.41;1088277;54;19927;-79
2022/05/25 05:42:44;;;;;;;;;;;;;;;14.95;60.30;99795.78;1088281;54;20027;-79
2022/05/25 05:43:45;;;;;;;;;;;;;;;14.75;60.40;99791.88;1090540;47;19938;-78
2022/05/25 05:44:50;;;;;;;;;;;;;;;14.69;60.38;99787.22;1088220;54;20004;-78
2022/05/25 05:45:55;;;;;;;;;;;;;;;14.65;60.51;99787.53;1087884;54;19943;-79
2022/05/25 05:47:00;;;;;;;;;;;;;;;14.70;60.64;99795.13;1088017;54;19934;-78
2022/05/25 05:48:08;;;;;;;;;;;;;;;14.82;60.27;99799.06;1088289;54;19995;-78
2022/05/25 05:49:10;;;;;;;;;;;;;;;14.91;59.96;99791.75;1088280;54;19942;-78
2022/05/25 05:50:14;;;;;;;;;;;;;;;15.02;59.35;99792.38;1088120;54;19942;-78
2022/05/25 05:51:15;;;;;;;;;;;;;;;15.07;59.02;99790.81;1088299;54;19942;-78
2022/05/25 05:52:19;;;;;;;;;;;;;;;15.08;58.73;99792.50;1088230;54;19931;-77
2022/05/25 05:53:26;;;;;;;;;;;;;;;15.04;58.62;99791.16;1088259;54;19926;-78
2022/05/25 05:54:27;;;;;;;;;;;;;;;15.09;58.96;99799.56;1088304;54;19967;-79
2022/05/25 05:55:31;;;;;;;;;;;;;;;15.01;58.78;99796.94;1088233;54;19951;-77
2022/05/25 05:56:35;;;;;;;;;;;;;;;15.06;58.64;99799.91;1088235;54;19927;-79
2022/05/25 05:57:40;;;;;;;;;;;;;;;15.16;58.63;99805.03;1088274;54;19934;-78
2022/05/25 05:58:42;;;;;;;;;;;;;;;15.19;58.41;99796.59;1088293;54;19942;-78
2022/05/25 05:59:45;;;;;;;;;;;;;;;15.06;58.18;99796.38;1088221;54;19983;-77
2022/05/25 06:00:46;;;;;;;;;;;;;;;14.98;59.04;99802.66;1088227;54;19934;-77
2022/05/25 06:01:52;;;;;;;;;;;;;;;15.14;58.57;99793.63;1088130;54;19950;-77
2022/05/25 06:02:53;;;;;;;;;;;;;;;15.25;58.29;99795.03;1089685;47;19950;-78
2022/05/25 06:03:57;;;;;;;;;;;;;;;15.23;58.46;99799.75;1089021;47;19950;-78
2022/05/25 06:04:58;;;;;;;;;;;;;;;15.30;58.25;99792.66;1087452;54;19949;-78
2022/05/25 06:06:02;;;;;;;;;;;;;;;15.31;57.73;99797.00;1087822;54;19949;-80
2022/05/25 06:07:04;;;;;;;;;;;;;;;15.28;57.76;99795.50;1087755;54;19943;-81
2022/05/25 06:08:09;;;;;;;;;;;;;;;15.23;58.05;99805.16;1087848;54;19991;-79
2022/05/25 06:09:15;;;;;;;;;;;;;;;15.34;58.06;99806.59;1087766;54;20011;-82
2022/05/25 06:10:19;;;;;;;;;;;;;;;15.44;57.79;99802.59;1087890;47;19939;-79
2022/05/25 06:11:22;;;;;;;;;;;;;;;15.40;57.61;99806.69;1087772;54;19942;-79
2022/05/25 06:12:27;;;;;;;;;;;;;;;15.39;58.12;99805.03;1087833;54;19953;-80
2022/05/25 06:13:31;;;;;;;;;;;;;;;15.35;58.20;99819.03;1088170;54;19939;-81
2022/05/25 06:14:32;;;;;;;;;;;;;;;15.40;57.88;99812.06;1088217;54;19934;-80
2022/05/25 06:19:33;;;;;;;;;;;;;;;15.47;57.03;99819.44;1088531;54;19939;-80
2022/05/25 06:20:35;;;;;;;;;;;;;;;15.52;56.69;99822.41;1088511;54;19954;-79
2022/05/25 06:21:39;;;;;;;;;;;;;;;15.65;56.71;99817.25;1088480;54;19950;-79
2022/05/25 06:22:41;;;;;;;;;;;;;;;15.71;56.55;99812.97;1088536;54;19942;-80
2022/05/25 06:23:46;;;;;;;;;;;;;;;15.76;56.43;99815.94;1088619;54;19949;-81
2022/05/25 06:24:54;;;;;;;;;;;;;;;15.79;56.22;99820.13;1088554;54;19951;-81
2022/05/25 06:25:55;;;;;;;;;;;;;;;15.83;56.47;99816.03;1088538;54;19930;-80
2022/05/25 06:27:01;;;;;;;;;;;;;;;15.89;56.07;99820.72;1088698;54;19942;-82
2022/05/25 06:28:02;;;;;;;;;;;;;;;15.82;56.48;99822.44;1088621;54;19942;-82
2022/05/25 06:29:07;;;;;;;;;;;;;;;15.78;56.67;99821.97;1088407;54;19938;-82
2022/05/25 06:30:09;;;;;;;;;;;;;;;15.77;56.62;99824.88;1091036;46;20196;-79
2022/05/25 06:31:14;;;;;;;;;;;;;;;15.59;56.82;99828.72;1088538;54;19943;-80
2022/05/25 06:32:19;;;;;;;;;;;;;;;15.71;56.47;99831.84;1088512;54;19957;-79
2022/05/25 06:33:20;;;;;;;;;;;;;;;15.70;56.23;99833.69;1090967;39;20558;-81
2022/05/25 06:34:24;;;;;;;;;;;;;;;15.67;56.49;99823.28;1088595;54;19942;-81
2022/05/25 06:35:26;;;;;;;;;;;;;;;15.74;56.33;99829.59;1090387;46;19965;-83
2022/05/25 06:36:30;;;;;;;;;;;;;;;15.85;56.07;99819.44;1088591;54;19943;-80
2022/05/25 06:37:45;;;;;;;;;;;;;;;15.98;55.91;99821.47;1088572;54;19931;-83
2022/05/25 06:39:10;;;;;;;;;;;;;;;16.01;55.53;99827.31;1088563;54;19938;-79
2022/05/25 06:40:14;;;;;;;;;;;;;;;16.04;55.35;99829.66;1088565;54;19946;-84
2022/05/25 06:41:19;;;;;;;;;;;;;;;16.17;55.07;99831.69;1088677;54;20626;-82
2022/05/25 06:42:23;;;;;;;;;;;;;;;16.30;55.09;99832.88;1088668;54;19934;-82
2022/05/25 06:43:24;;;;;;;;;;;;;;;16.36;54.53;99829.44;1088849;54;19931;-83
2022/05/25 06:44:28;;;;;;;;;;;;;;;16.38;54.25;99830.09;1088644;54;20063;-85
2022/05/25 06:45:32;;;;;;;;;;;;;;;16.46;54.34;99834.53;1088626;54;19938;-83
2022/05/25 06:46:42;;;;;;;;;;;;;;;16.56;53.86;99831.56;1088812;54;19934;-84
2022/05/25 06:47:43;;;;;;;;;;;;;;;16.65;53.93;99833.13;1088551;54;19942;-82
2022/05/25 06:48:49;;;;;;;;;;;;;;;16.75;53.96;99824.72;1088673;54;19975;-82
2022/05/25 06:49:54;;;;;;;;;;;;;;;16.80;53.65;99833.09;1088702;54;20205;-84
2022/05/25 06:50:55;;;;;;;;;;;;;;;16.84;53.68;99834.34;1088660;54;19942;-83
2022/05/25 06:51:59;;;;;;;;;;;;;;;16.98;53.41;99830.81;1088603;54;19935;-83
2022/05/25 06:53:00;;;;;;;;;;;;;;;17.07;52.74;99833.38;1088531;54;19950;-84
2022/05/25 06:54:05;;;;;;;;;;;;;;;17.21;52.95;99840.56;1088559;54;19942;-84
2022/05/25 06:55:06;;;;;;;;;;;;;;;17.27;52.45;99842.53;1088601;54;19927;-85
2022/05/25 06:56:12;;;;;;;;;;;;;;;17.20;52.53;99841.59;1088400;54;19946;-84
2022/05/25 06:57:14;;;;;;;;;;;;;;;17.26;51.81;99834.59;1088238;54;19943;-86
2022/05/25 06:58:18;;;;;;;;;;;;;;;17.17;52.25;99841.16;1088067;54;19958;-82
2022/05/25 06:59:22;;;;;;;;;;;;;;;17.07;52.78;99842.31;1088045;54;19949;-84
2022/05/25 07:00:23;;;;;;;;;;;;;;;17.03;52.65;99853.69;1088155;54;19967;-84
2022/05/25 07:01:27;;;;;;;;;;;;;;;17.14;52.55;99851.31;1088146;54;19942;-83
2022/05/25 07:02:28;;;;;;;;;;;;;;;17.18;52.43;99851.78;1088015;54;20021;-79
2022/05/25 07:03:38;;;;;;;;;;;;;;;17.42;52.38;99847.84;1088028;54;19949;-83
2022/05/25 07:04:41;;;;;;;;;;;;;;;17.58;51.02;99857.53;1088082;54;20725;-83
2022/05/25 07:05:42;;;;;;;;;;;;;;;17.65;50.99;99849.47;1087970;54;19941;-84
2022/05/25 07:06:47;;;;;;;;;;;;;;;17.64;50.82;99855.09;1087989;54;20677;-87
2022/05/25 07:07:48;;;;;;;;;;;;;;;17.78;50.28;99859.56;1102872;39;20476;-86
2022/05/25 07:17:02;;;;;;;;;;;;;;;18.09;48.70;99869.16;1088554;54;19950;-85
2022/05/25 07:18:03;;;;;;;;;;;;;;;18.32;48.57;99865.34;1088478;54;19943;-84
2022/05/25 07:19:07;;;;;;;;;;;;;;;18.32;47.85;99868.88;1088490;54;19978;-84
2022/05/25 07:20:09;;;;;;;;;;;;;;;18.35;47.60;99864.94;1088418;54;19939;-85
2022/05/25 07:21:14;;;;;;;;;;;;;;;18.30;47.49;99865.53;1088122;54;19942;-83
2022/05/25 07:22:18;;;;;;;;;;;;;;;18.16;47.15;99874.63;1088370;54;19943;-83
2022/05/25 07:23:20;;;;;;;;;;;;;;;18.39;47.11;99872.44;1088406;54;19941;-86
2022/05/25 07:24:23;;;;;;;;;;;;;;;18.51;46.36;99872.72;1088505;54;19979;-84
2022/05/25 07:25:27;;;;;;;;;;;;;;;18.51;46.63;99871.88;1088518;54;19942;-85
2022/05/25 07:26:32;;;;;;;;;;;;;;;18.75;46.64;99870.53;1088495;54;19942;-83
2022/05/25 07:27:36;;;;;;;;;;;;;;;18.56;45.41;99874.84;1088394;54;19938;-84
2022/05/25 07:28:38;;;;;;;;;;;;;;;18.78;45.86;99869.28;1088275;54;19951;-84
2022/05/25 07:29:42;;;;;;;;;;;;;;;18.72;45.86;99873.63;1088487;54;19979;-86
2022/05/25 07:30:46;;;;;;;;;;;;;;;18.62;45.90;99875.88;1093982;46;19927;-84
2022/05/25 07:31:50;;;;;;;;;;;;;;;18.60;45.51;99877.97;1088441;54;19943;-84
2022/05/25 07:32:58;;;;;;;;;;;;;;;18.44;46.13;99871.03;1088373;54;19942;-85
2022/05/25 07:34:01;;;;;;;;;;;;;;;18.49;46.12;99874.81;1088453;54;19927;-83
2022/05/25 07:35:06;;;;;;;;;;;;;;;18.45;46.03;99875.41;1088420;54;19999;-86
2022/05/25 07:36:09;;;;;;;;;;;;;;;18.69;45.76;99874.06;1088471;54;19927;-82
2022/05/25 07:37:15;;;;;;;;;;;;;;;18.85;45.50;99875.53;1088645;39;20717;-85
2022/05/25 07:38:17;;;;;;;;;;;;;;;18.92;45.23;99864.75;1088135;54;19942;-85
2022/05/25 07:39:28;;;;;;;;;;;;;;;18.77;45.23;99871.16;1088373;54;19949;-85
2022/05/25 07:40:36;;;;;;;;;;;;;;;18.91;44.76;99868.47;1088453;54;19943;-84
2022/05/25 07:41:43;;;;;;;;;;;;;;;18.94;44.52;99879.75;1088468;54;19950;-83
2022/05/25 07:42:48;;;;;;;;;;;;;;;19.21;44.74;99871.72;1088417;54;19941;-84
2022/05/25 07:43:57;;;;;;;;;;;;;;;19.32;43.96;99875.69;1088407;54;19926;-84
2022/05/25 07:45:03;;;;;;;;;;;;;;;19.31;43.86;99864.03;1088370;54;19974;-83
2022/05/25 07:46:04;;;;;;;;;;;;;;;19.30;44.33;99873.19;1088421;54;19934;-83
2022/05/25 07:47:08;;;;;;;;;;;;;;;18.99;44.58;99873.75;1088399;54;19949;-85
2022/05/25 07:48:12;;;;;;;;;;;;;;;19.20;44.27;99880.03;1088513;54;19950;-85
2022/05/25 07:49:16;;;;;;;;;;;;;;;19.22;44.11;99881.53;1088544;54;19943;-87
2022/05/25 07:50:19;;;;;;;;;;;;;;;19.19;43.35;99879.22;1088351;54;20677;-84
2022/05/25 07:51:24;;;;;;;;;;;;;;;19.18;43.17;99869.41;1088488;54;19942;-82
2022/05/25 07:52:29;;;;;;;;;;;;;;;19.08;42.75;99872.50;1088422;54;20554;-84
2022/05/25 07:55:05;;;;;;;;;;;;;;;19.40;42.16;99869.25;1087851;54;19942;-84
2022/05/25 07:56:06;;;;;;;;;;;;;;;19.27;42.44;99870.91;1088233;54;19935;-80
2022/05/25 07:57:10;;;;;;;;;;;;;;;19.13;43.34;99880.88;1088222;54;19946;-83
2022/05/25 07:58:11;;;;;;;;;;;;;;;19.28;43.50;99866.28;1088244;54;20023;-83
2022/05/25 07:59:16;;;;;;;;;;;;;;;19.19;42.97;99871.09;1088151;54;20967;-84
2022/05/25 08:00:25;;;;;;;;;;;;;;;19.25;42.93;99864.03;1088235;54;20674;-86
2022/05/25 08:06:40;;;;;;;;;;;;;;;19.76;41.41;99860.69;1088238;54;19967;-83
2022/05/25 08:07:41;;;;;;;;;;;;;;;20.13;40.85;99867.53;1088198;54;19943;-85
2022/05/25 08:08:46;;;;;;;;;;;;;;;20.34;40.62;99856.44;1088181;54;20000;-84
2022/05/25 08:09:48;;;;;;;;;;;;;;;20.50;40.05;99860.56;1088140;54;19931;-87
2022/05/25 08:10:54;;;;;;;;;;;;;;;20.35;40.05;99865.41;1087613;54;19942;-83
2022/05/25 08:11:58;;;;;;;;;;;;;;;19.94;39.72;99860.09;1091423;31;20611;-83
2022/05/25 08:13:03;;;;;;;;;;;;;;;20.19;39.24;99867.53;1088104;54;19927;-84
2022/05/25 08:14:04;;;;;;;;;;;;;;;20.20;39.02;99865.66;1088221;54;19938;-85
2022/05/25 08:15:10;;;;;;;;;;;;;;;20.44;39.25;99856.00;1088084;54;19954;-84
2022/05/25 08:16:11;;;;;;;;;;;;;;;20.57;39.14;99861.34;1087997;54;19927;-84
2022/05/25 08:17:15;;;;;;;;;;;;;;;20.24;38.91;99854.19;1090154;39;20645;-86
2022/05/25 08:18:20;;;;;;;;;;;;;;;20.39;38.71;99861.22;1088073;54;19943;-85
2022/05/25 08:19:23;;;;;;;;;;;;;;;20.72;37.82;99861.09;1088193;54;19927;-84
2022/05/25 08:20:29;;;;;;;;;;;;;;;20.49;38.56;99860.78;1089709;46;19943;-82
2022/05/25 08:21:31;;;;;;;;;;;;;;;20.92;38.47;99857.47;1088149;54;19999;-86
2022/05/25 08:22:37;;;;;;;;;;;;;;;20.68;37.88;99862.56;1088159;54;19942;-85
2022/05/25 08:23:41;;;;;;;;;;;;;;;20.99;37.67;99858.25;1088124;54;19942;-85
2022/05/25 08:24:45;;;;;;;;;;;;;;;21.32;37.29;99865.38;1088431;39;20451;-85
2022/05/25 08:25:48;;;;;;;;;;;;;;;21.19;37.40;99866.28;1088098;54;19942;-84
2022/05/25 08:26:55;;;;;;;;;;;;;;;21.04;37.68;99861.16;1087796;54;19949;-85
2022/05/25 08:27:56;;;;;;;;;;;;;;;20.73;37.81;99868.22;1087642;54;19951;-83
2022/05/25 08:29:00;;;;;;;;;;;;;;;20.59;37.67;99861.16;1088137;54;20977;-87
2022/05/25 08:30:04;;;;;;;;;;;;;;;20.99;36.88;99860.16;1088278;54;19943;-85
2022/05/25 08:31:08;;;;;;;;;;;;;;;20.94;36.75;99858.09;1088381;54;20566;-84
2022/05/25 08:32:11;;;;;;;;;;;;;;;20.78;37.65;99858.59;1088383;54;19930;-85
2022/05/25 08:33:18;;;;;;;;;;;;;;;20.89;37.99;99863.31;1088303;54;19938;-84
2022/05/25 08:34:22;;;;;;;;;;;;;;;20.97;38.09;99857.63;1088402;54;19943;-86
2022/05/25 08:35:30;;;;;;;;;;;;;;;21.14;37.93;99866.09;1088342;54;19983;-84
2022/05/25 08:36:31;;;;;;;;;;;;;;;20.98;38.71;99864.72;1088323;54;19942;-83
2022/05/25 08:37:35;;;;;;;;;;;;;;;21.13;38.20;99860.91;1088369;54;19943;-85
2022/05/25 08:38:36;;;;;;;;;;;;;;;20.76;37.38;99866.13;1088349;54;19957;-85
2022/05/25 08:39:40;;;;;;;;;;;;;;;20.65;36.81;99867.59;1088346;54;20534;-83
2022/05/25 08:40:45;;;;;;;;;;;;;;;20.61;37.43;99869.91;1088319;54;19935;-84
2022/05/25 08:41:52;;;;;;;;;;;;;;;20.97;36.86;99867.69;1088344;54;19946;-85
2022/05/25 08:42:59;;;;;;;;;;;;;;;21.01;36.81;99858.88;1088316;54;19942;-86
2022/05/25 08:44:01;;;;;;;;;;;;;;;20.85;37.17;99867.53;1087859;54;19942;-84
2022/05/25 08:45:06;;;;;;;;;;;;;;;21.00;36.99;99862.63;1088094;54;19943;-85
2022/05/25 08:46:14;;;;;;;;;;;;;;;21.00;37.32;99868.06;1088369;54;19950;-84
2022/05/25 08:47:17;;;;;;;;;;;;;;;21.31;36.55;99854.69;1088333;54;19942;-83
2022/05/25 08:48:20;;;;;;;;;;;;;;;21.11;36.75;99863.81;1088322;54;19950;-85
2022/05/25 08:49:25;;;;;;;;;;;;;;;21.01;36.91;99864.31;1088338;54;19947;-85
2022/05/25 08:51:35;;;;;;;;;;;;;;;20.57;37.49;99857.81;1088395;54;19939;-78
2022/05/25 08:52:36;;;;;;;;;;;;;;;20.79;36.89;99857.53;1088339;54;19935;-77
2022/05/25 08:53:40;;;;;;;;;;;;;;;20.73;37.28;99865.50;1088342;54;19942;-80
2022/05/25 08:54:44;;;;;;;;;;;;;;;21.18;36.99;99864.63;1088441;54;19969;-81
2022/05/25 08:55:52;;;;;;;;;;;;;;;21.37;36.66;99861.13;1088391;54;19942;-83
2022/05/25 08:56:58;;;;;;;;;;;;;;;21.19;37.20;99857.28;1092079;46;19942;-81
2022/05/25 08:58:02;;;;;;;;;;;;;;;21.55;36.78;99863.09;1088404;54;19942;-81
2022/05/25 08:59:08;;;;;;;;;;;;;;;21.46;36.53;99851.66;1088435;54;19943;-82
2022/05/25 09:00:13;;;;;;;;;;;;;;;21.39;36.76;99864.47;1088019;54;19939;-81
2022/05/25 09:01:22;;;;;;;;;;;;;;;21.56;35.45;99857.44;1088311;46;19933;-81
2022/05/25 09:02:30;;;;;;;;;;;;;;;21.70;35.35;99862.81;1088493;54;19954;-80
2022/05/25 09:03:37;;;;;;;;;;;;;;;21.55;35.69;99866.66;1088290;54;19939;-79
2022/05/25 09:04:42;;;;;;;;;;;;;;;21.39;35.96;99872.63;1088393;54;19926;-79
2022/05/25 09:05:46;;;;;;;;;;;;;;;21.27;35.61;99867.91;1088288;54;19942;-80
2022/05/25 09:07:12;;;;;;;;;;;;;;;21.40;36.20;99874.31;1088392;54;20020;-80
2022/05/25 09:09:49;;;;;;;;;;;;;;;21.90;35.74;99866.19;1088053;54;19929;-81
2022/05/25 09:10:53;;;;;;;;;;;;;;;21.83;36.19;99867.28;1088222;54;19933;-81
2022/05/25 09:11:59;;;;;;;;;;;;;;;21.34;36.00;99868.72;1088526;54;19938;-83
2022/05/25 09:13:04;;;;;;;;;;;;;;;21.44;36.16;99870.09;1088451;54;19923;-79
2022/05/25 09:14:11;;;;;;;;;;;;;;;21.55;35.85;99879.41;1088300;54;19938;-81
2022/05/25 09:15:18;;;;;;;;;;;;;;;21.62;35.98;99880.22;1090449;31;20680;-83
2022/05/25 09:16:22;;;;;;;;;;;;;;;21.59;35.49;99881.50;1088240;54;19942;-80
2022/05/25 09:17:30;;;;;;;;;;;;;;;21.46;35.40;99873.41;1087987;54;19998;-81
2022/05/25 09:18:33;;;;;;;;;;;;;;;21.62;35.52;99870.19;1088422;54;19950;-81